Time;durP1;ratioP1;P1;durP2;ratioP2;P2;SDS_P1;SDS_P2;PMS_P1;PMS_P2;Temp;Humidity;BMP_temperature;BMP_pressure;BME280_temperature;BME280_humidity;BME280_pressure;Samples;Min_cycle;Max_cycle;Signal;HPM_P1;HPM_P2
2022/01/19 00:00:48;;;;;;;8.30;7.50;;;;;;;;;;4981770;28;20220;-85
2022/01/19 00:03:16;;;;;;;8.70;7.43;;;;;;;;;;4984582;28;20207;-84
2022/01/19 00:05:45;;;;;;;8.93;7.50;;;;;;;;;;4981757;28;20290;-84
2022/01/19 00:08:16;;;;;;;9.50;7.67;;;;;;;;;;4977024;28;20207;-84
2022/01/19 00:10:43;;;;;;;8.53;7.53;;;;;;;;;;4978125;28;20219;-84
2022/01/19 00:13:11;;;;;;;10.47;7.57;;;;;;;;;;4978257;28;20235;-84
2022/01/19 00:15:38;;;;;;;9.93;7.50;;;;;;;;;;4982050;28;20291;-82
2022/01/19 00:18:05;;;;;;;7.83;6.93;;;;;;;;;;4990704;28;20204;-83
2022/01/19 00:20:34;;;;;;;8.73;7.33;;;;;;;;;;4978003;28;20247;-84
2022/01/19 00:23:04;;;;;;;9.73;7.13;;;;;;;;;;4978056;28;20352;-83
2022/01/19 00:25:32;;;;;;;8.10;7.30;;;;;;;;;;4977861;28;20228;-84
2022/01/19 00:27:59;;;;;;;8.63;7.37;;;;;;;;;;4977710;28;20211;-84
2022/01/19 00:30:27;;;;;;;9.40;7.23;;;;;;;;;;4978217;28;20291;-83
2022/01/19 00:32:54;;;;;;;9.43;7.60;;;;;;;;;;4978083;28;20203;-84
2022/01/19 00:35:22;;;;;;;8.93;8.03;;;;;;;;;;4977279;28;20237;-83
2022/01/19 00:37:49;;;;;;;8.63;7.80;;;;;;;;;;4978202;28;20254;-84
2022/01/19 00:40:18;;;;;;;8.57;7.47;;;;;;;;;;4978998;28;20270;-84
2022/01/19 00:42:46;;;;;;;10.53;7.90;;;;;;;;;;4978892;28;20227;-84
2022/01/19 00:45:14;;;;;;;10.20;7.90;;;;;;;;;;4979218;28;20278;-84
2022/01/19 00:47:41;;;;;;;8.60;7.70;;;;;;;;;;4978098;28;20262;-84
2022/01/19 00:50:10;;;;;;;8.90;7.43;;;;;;;;;;4979668;28;20251;-83
2022/01/19 00:52:37;;;;;;;9.23;7.60;;;;;;;;;;4978743;28;20300;-84
2022/01/19 00:55:05;;;;;;;9.53;7.57;;;;;;;;;;4979297;28;20207;-84
2022/01/19 00:57:34;;;;;;;8.57;7.53;;;;;;;;;;4982504;28;20215;-84
2022/01/19 01:00:01;;;;;;;10.70;7.97;;;;;;;;;;4995285;28;20253;-83
2022/01/19 01:02:31;;;;;;;8.90;8.00;;;;;;;;;;4977481;28;20258;-83
2022/01/19 01:04:58;;;;;;;9.23;7.60;;;;;;;;;;4984125;28;20214;-84
2022/01/19 01:07:27;;;;;;;10.53;7.70;;;;;;;;;;4977691;28;20207;-83
2022/01/19 01:09:54;;;;;;;11.20;7.97;;;;;;;;;;4974532;28;20231;-85
2022/01/19 01:12:28;;;;;;;9.53;7.83;;;;;;;;;;4975608;28;20278;-83
2022/01/19 01:20:26;;;;;;;11.10;8.13;;;;;;;;;;4970430;28;20343;-84
2022/01/19 01:22:53;;;;;;;9.83;7.80;;;;;;;;;;4981628;28;20200;-84
2022/01/19 01:25:21;;;;;;;10.43;7.97;;;;;;;;;;4979975;28;20310;-84
2022/01/19 01:27:48;;;;;;;10.47;8.03;;;;;;;;;;4983559;28;20229;-85
2022/01/19 01:30:17;;;;;;;8.77;7.20;;;;;;;;;;4991150;28;20228;-83
2022/01/19 01:32:44;;;;;;;12.93;8.23;;;;;;;;;;4992518;28;20208;-86
2022/01/19 01:35:11;;;;;;;11.13;8.20;;;;;;;;;;4974648;28;20234;-84
2022/01/19 01:37:39;;;;;;;10.93;8.77;;;;;;;;;;4983570;28;20200;-83
2022/01/19 01:40:08;;;;;;;9.67;8.10;;;;;;;;;;4974283;28;20286;-83
2022/01/19 01:42:36;;;;;;;10.90;8.77;;;;;;;;;;4974018;28;20206;-84
2022/01/19 01:45:04;;;;;;;10.27;8.57;;;;;;;;;;4975233;28;20280;-84
2022/01/19 01:47:40;;;;;;;11.40;8.43;;;;;;;;;;4977499;28;20267;-83
2022/01/19 01:55:36;;;;;;;11.27;8.13;;;;;;;;;;4978694;28;20211;-84
2022/01/19 01:58:04;;;;;;;11.23;8.50;;;;;;;;;;4973842;28;20243;-84
2022/01/19 02:00:31;;;;;;;10.03;9.03;;;;;;;;;;4982091;28;20254;-83
2022/01/19 02:03:00;;;;;;;11.57;9.23;;;;;;;;;;4980784;28;20227;-84
2022/01/19 02:05:28;;;;;;;10.20;8.63;;;;;;;;;;4980989;28;20228;-84
2022/01/19 02:08:05;;;;;;;13.10;9.13;;;;;;;;;;4980347;28;20208;-84
2022/01/19 02:10:39;;;;;;;10.43;8.43;;;;;;;;;;4981302;28;20310;-84
2022/01/19 02:16:13;;;;;;;11.80;8.67;;;;;;;;;;4981583;28;20214;-86
2022/01/19 02:21:43;;;;;;;10.20;8.43;;;;;;;;;;4977531;28;20271;-84
2022/01/19 02:24:13;;;;;;;13.60;9.40;;;;;;;;;;4981973;28;20212;-83
2022/01/19 02:26:55;;;;;;;13.93;10.03;;;;;;;;;;4980658;28;20274;-83
2022/01/19 02:30:08;;;;;;;11.33;8.70;;;;;;;;;;4980387;28;20246;-85
2022/01/19 02:40:49;;;;;;;13.27;9.40;;;;;;;;;;4980663;28;20283;-84
2022/01/19 02:43:23;;;;;;;12.07;8.73;;;;;;;;;;4980291;28;20290;-85
2022/01/19 02:51:19;;;;;;;13.17;9.97;;;;;;;;;;4981077;28;20206;-84
2022/01/19 02:53:48;;;;;;;12.67;9.53;;;;;;;;;;4980768;28;20219;-85
2022/01/19 02:56:22;;;;;;;13.03;9.33;;;;;;;;;;4980183;28;20205;-83
2022/01/19 02:58:53;;;;;;;12.90;9.70;;;;;;;;;;4978348;28;20280;-84
2022/01/19 03:09:36;;;;;;;13.30;10.30;;;;;;;;;;4980585;28;20306;-83
2022/01/19 03:12:04;;;;;;;13.17;10.37;;;;;;;;;;4980459;28;20211;-85
2022/01/19 03:14:31;;;;;;;11.63;9.40;;;;;;;;;;4979979;28;20242;-82
2022/01/19 03:16:58;;;;;;;13.50;9.37;;;;;;;;;;4979199;28;20224;-84
2022/01/19 03:19:28;;;;;;;12.93;9.73;;;;;;;;;;4979142;28;20270;-84
2022/01/19 03:21:55;;;;;;;15.20;10.80;;;;;;;;;;4979472;28;20242;-83
2022/01/19 03:24:22;;;;;;;11.57;10.13;;;;;;;;;;4979405;28;20267;-84
2022/01/19 03:26:51;;;;;;;13.67;10.93;;;;;;;;;;4978100;28;20224;-83
2022/01/19 03:29:22;;;;;;;11.90;9.63;;;;;;;;;;4977250;28;20641;-83
2022/01/19 03:31:49;;;;;;;15.00;10.40;;;;;;;;;;4978369;28;20262;-83
2022/01/19 03:34:17;;;;;;;14.80;10.50;;;;;;;;;;4979548;28;20200;-86
2022/01/19 03:36:46;;;;;;;15.47;10.80;;;;;;;;;;4978934;28;20382;-84
2022/01/19 03:39:13;;;;;;;14.73;10.53;;;;;;;;;;4979615;28;20219;-84
2022/01/19 03:41:40;;;;;;;16.13;10.53;;;;;;;;;;4980354;28;20208;-83
2022/01/19 03:44:10;;;;;;;11.97;9.47;;;;;;;;;;4979923;28;20654;-83
2022/01/19 03:46:46;;;;;;;12.90;9.97;;;;;;;;;;4979780;28;20231;-81
2022/01/19 03:49:23;;;;;;;14.77;10.47;;;;;;;;;;4980847;28;20343;-85
2022/01/19 03:51:50;;;;;;;13.17;10.43;;;;;;;;;;4980500;28;20203;-84
2022/01/19 03:54:17;;;;;;;16.17;10.37;;;;;;;;;;4980338;28;20208;-83
2022/01/19 03:56:49;;;;;;;12.93;10.57;;;;;;;;;;4978414;28;20268;-83
2022/01/19 03:59:18;;;;;;;13.97;9.37;;;;;;;;;;4979593;28;20228;-84
2022/01/19 04:01:45;;;;;;;14.77;10.53;;;;;;;;;;4979840;28;20204;-83
2022/01/19 04:06:58;;;;;;;13.40;9.83;;;;;;;;;;4976496;28;20222;-84
2022/01/19 04:09:26;;;;;;;13.47;9.73;;;;;;;;;;4981500;28;20259;-84
2022/01/19 04:11:54;;;;;;;14.77;10.00;;;;;;;;;;4985874;28;20200;-83
2022/01/19 04:14:24;;;;;;;14.60;9.93;;;;;;;;;;4980310;28;20200;-84
2022/01/19 04:16:52;;;;;;;12.03;9.10;;;;;;;;;;4979492;28;20215;-84
2022/01/19 04:19:26;;;;;;;11.97;9.27;;;;;;;;;;4980253;28;20231;-84
2022/01/19 04:21:53;;;;;;;17.37;10.57;;;;;;;;;;4980575;28;20283;-85
2022/01/19 04:24:21;;;;;;;12.97;10.20;;;;;;;;;;4980726;28;20216;-85
2022/01/19 04:26:58;;;;;;;16.43;11.00;;;;;;;;;;4979983;28;20262;-84
2022/01/19 04:29:27;;;;;;;14.40;10.60;;;;;;;;;;4980463;28;20231;-83
2022/01/19 04:31:54;;;;;;;13.70;10.07;;;;;;;;;;4981131;28;20207;-84
2022/01/19 04:34:22;;;;;;;14.63;11.00;;;;;;;;;;4974706;28;20235;-84
2022/01/19 04:37:22;;;;;;;13.13;10.60;;;;;;;;;;4981966;28;20208;-83
2022/01/19 04:48:58;;;;;;;15.90;11.40;;;;;;;;;;5039011;28;20226;-93
2022/01/19 05:06:12;;;;;;;18.67;12.80;;;;;;;;;;5009810;28;20325;-91
2022/01/19 05:08:57;;;;;;;20.10;12.67;;;;;;;;;;4998145;28;20211;-92
2022/01/19 05:14:29;;;;;;;18.40;13.37;;;;;;;;;;5013917;28;20249;-92
2022/01/19 05:17:18;;;;;;;18.43;12.67;;;;;;;;;;5013790;28;20210;-91
2022/01/19 05:19:52;;;;;;;20.50;13.13;;;;;;;;;;4962675;28;20229;-92
2022/01/19 05:22:57;;;;;;;18.37;12.57;;;;;;;;;;5009296;28;20248;-91
2022/01/19 05:25:55;;;;;;;17.83;12.63;;;;;;;;;;5005842;28;20206;-90
2022/01/19 05:37:08;;;;;;;16.23;12.53;;;;;;;;;;5307665;22;20309;-91
2022/01/19 05:39:59;;;;;;;16.30;11.80;;;;;;;;;;5058901;28;20241;-92
2022/01/19 05:42:39;;;;;;;18.77;12.30;;;;;;;;;;5053234;28;20205;-92
2022/01/19 05:45:14;;;;;;;18.90;12.10;;;;;;;;;;5065902;28;20223;-93
2022/01/19 05:48:03;;;;;;;19.33;12.60;;;;;;;;;;5062361;28;20225;-93
2022/01/19 05:50:41;;;;;;;18.57;12.20;;;;;;;;;;5061983;28;20252;-92
2022/01/19 05:53:18;;;;;;;18.50;11.70;;;;;;;;;;5037592;28;20208;-93
2022/01/19 05:56:02;;;;;;;;;;;;;;;;;;;;;
2022/01/19 06:02:01;;;;;;;18.60;12.47;;;;;;;;;;5035503;28;20244;-91
2022/01/19 06:07:14;;;;;;;20.30;12.50;;;;;;;;;;5044582;28;20221;-91
2022/01/19 06:40:46;;;;;;;17.60;12.73;;;;;;;;;;5023307;28;20223;-85
2022/01/19 06:43:14;;;;;;;21.37;13.27;;;;;;;;;;5018253;28;20199;-93
2022/01/19 06:45:45;;;;;;;18.73;13.63;;;;;;;;;;5019484;28;20210;-91
2022/01/19 06:48:26;;;;;;;19.00;13.97;;;;;;;;;;5019527;28;20724;-90
2022/01/19 06:50:54;;;;;;;20.00;13.60;;;;;;;;;;5018196;28;20269;-90
2022/01/19 06:53:38;;;;;;;19.40;13.70;;;;;;;;;;5019000;28;20230;-91
2022/01/19 07:14:58;;;;;;;20.67;13.50;;;;;;;;;;5719325;22;20220;-89
2022/01/19 07:20:35;;;;;;;20.50;13.37;;;;;;;;;;5053011;28;20287;-88
2022/01/19 07:44:49;;;;;;;20.33;13.87;;;;;;;;;;5016327;28;20222;-85
2022/01/19 07:47:16;;;;;;;21.87;14.30;;;;;;;;;;5017736;28;20254;-84
2022/01/19 07:49:46;;;;;;;23.07;13.60;;;;;;;;;;5014442;28;20231;-84
2022/01/19 07:52:14;;;;;;;21.33;13.47;;;;;;;;;;4999318;28;20215;-85
2022/01/19 07:54:43;;;;;;;19.67;13.53;;;;;;;;;;4997761;28;20195;-85
2022/01/19 07:57:12;;;;;;;20.63;14.10;;;;;;;;;;4996641;28;20234;-83
2022/01/19 07:59:40;;;;;;;19.17;13.10;;;;;;;;;;4998025;28;20215;-85
2022/01/19 08:02:11;;;;;;;21.60;14.63;;;;;;;;;;4997525;28;20211;-84
2022/01/19 08:04:38;;;;;;;21.63;13.87;;;;;;;;;;4999010;28;20226;-85
2022/01/19 08:07:05;;;;;;;20.77;14.90;;;;;;;;;;4996278;28;20219;-85
2022/01/19 08:09:33;;;;;;;21.63;15.07;;;;;;;;;;4998589;28;20223;-85
2022/01/19 08:12:01;;;;;;;19.73;14.57;;;;;;;;;;4998243;28;20372;-85
2022/01/19 08:14:29;;;;;;;20.17;13.50;;;;;;;;;;4999803;28;20211;-85
2022/01/19 08:16:57;;;;;;;17.87;13.83;;;;;;;;;;4998907;28;20206;-85
2022/01/19 08:19:28;;;;;;;21.37;13.87;;;;;;;;;;4999315;28;20298;-86
2022/01/19 08:21:56;;;;;;;20.70;14.37;;;;;;;;;;4999021;28;20206;-86
2022/01/19 08:24:23;;;;;;;18.57;13.77;;;;;;;;;;4998856;28;20213;-86
2022/01/19 08:26:52;;;;;;;18.67;13.83;;;;;;;;;;4998314;28;20225;-85
2022/01/19 08:29:20;;;;;;;21.47;13.87;;;;;;;;;;4999443;28;20239;-85
2022/01/19 08:31:47;;;;;;;19.97;14.10;;;;;;;;;;4999552;28;20221;-86
2022/01/19 08:34:16;;;;;;;18.87;14.03;;;;;;;;;;4999505;28;20265;-85
2022/01/19 08:36:45;;;;;;;20.90;14.23;;;;;;;;;;4999092;28;20207;-85
2022/01/19 08:39:15;;;;;;;25.40;16.40;;;;;;;;;;5003046;28;20217;-86
2022/01/19 08:41:44;;;;;;;23.53;15.23;;;;;;;;;;4999846;28;20210;-85
2022/01/19 08:44:12;;;;;;;22.03;15.37;;;;;;;;;;4993811;28;20225;-85
2022/01/19 08:46:40;;;;;;;23.83;15.87;;;;;;;;;;4993727;28;20226;-85
2022/01/19 08:49:07;;;;;;;25.20;17.50;;;;;;;;;;4993091;28;20214;-85
2022/01/19 08:51:37;;;;;;;25.13;15.97;;;;;;;;;;4999595;28;20235;-85
2022/01/19 08:54:06;;;;;;;22.77;15.87;;;;;;;;;;4993156;28;20217;-85
2022/01/19 08:56:33;;;;;;;24.20;16.47;;;;;;;;;;4993151;28;20215;-85
2022/01/19 08:59:00;;;;;;;19.83;15.17;;;;;;;;;;4992505;28;20255;-85
2022/01/19 09:01:28;;;;;;;20.57;14.90;;;;;;;;;;4994433;28;20301;-85
2022/01/19 09:03:55;;;;;;;22.53;15.07;;;;;;;;;;4999926;28;20210;-85
2022/01/19 09:06:22;;;;;;;19.63;14.90;;;;;;;;;;5013984;28;20203;-85
2022/01/19 09:08:50;;;;;;;19.33;14.63;;;;;;;;;;4999597;28;20238;-85
2022/01/19 09:11:22;;;;;;;21.13;14.90;;;;;;;;;;4999039;28;20233;-85
2022/01/19 09:13:50;;;;;;;22.70;15.90;;;;;;;;;;4993226;28;20211;-85
2022/01/19 09:16:17;;;;;;;19.47;15.07;;;;;;;;;;5002734;28;20211;-85
2022/01/19 09:18:45;;;;;;;18.30;14.23;;;;;;;;;;4994923;28;20211;-84
2022/01/19 09:21:12;;;;;;;19.80;15.10;;;;;;;;;;5001072;28;20247;-85
2022/01/19 09:23:39;;;;;;;21.33;15.10;;;;;;;;;;4995459;28;20211;-85
2022/01/19 09:26:07;;;;;;;18.13;14.10;;;;;;;;;;4994993;28;20265;-85
2022/01/19 09:32:24;;;;;;;18.67;13.77;;;;;;;;;;5078457;22;20306;-83
2022/01/19 09:35:22;;;;;;;21.80;14.50;;;;;;;;;;5033925;28;20202;-83
2022/01/19 09:38:10;;;;;;;18.43;14.17;;;;;;;;;;5021926;28;20202;-83
2022/01/19 09:40:43;;;;;;;18.47;13.00;;;;;;;;;;5032844;28;20226;-84
2022/01/19 09:43:21;;;;;;;17.30;13.83;;;;;;;;;;5016785;28;20199;-84
2022/01/19 09:46:06;;;;;;;18.90;13.97;;;;;;;;;;5019776;28;20198;-85
2022/01/19 10:08:54;;;;;;;15.73;12.57;;;;;;;;;;5028778;28;20222;-85
2022/01/19 10:17:54;;;;;;;16.33;11.43;;;;;;;;;;5010052;28;20208;-85
2022/01/19 10:20:24;;;;;;;13.77;11.27;;;;;;;;;;5034579;28;20234;-85
2022/01/19 10:22:55;;;;;;;13.63;11.17;;;;;;;;;;5032400;28;20226;-85
2022/01/19 10:25:22;;;;;;;14.30;10.93;;;;;;;;;;5032768;28;20268;-84
2022/01/19 10:27:49;;;;;;;15.23;11.77;;;;;;;;;;5030721;28;20228;-85
2022/01/19 10:30:27;;;;;;;12.63;11.23;;;;;;;;;;5035890;28;20279;-85
2022/01/19 10:33:02;;;;;;;12.63;11.03;;;;;;;;;;5027911;28;20201;-85
2022/01/19 10:35:31;;;;;;;13.40;10.40;;;;;;;;;;5025547;28;20210;-85
2022/01/19 10:38:14;;;;;;;18.67;11.53;;;;;;;;;;5028706;28;20199;-85
2022/01/19 10:40:42;;;;;;;15.07;11.00;;;;;;;;;;5029045;28;20221;-85
2022/01/19 10:43:28;;;;;;;14.33;11.17;;;;;;;;;;5028259;28;20198;-85
2022/01/19 10:45:57;;;;;;;15.20;10.87;;;;;;;;;;5032459;28;20673;-85
2022/01/19 10:48:33;;;;;;;14.00;10.03;;;;;;;;;;5044615;28;20253;-85
2022/01/19 10:51:07;;;;;;;15.70;10.07;;;;;;;;;;5022578;28;20226;-85
2022/01/19 10:53:47;;;;;;;13.13;10.63;;;;;;;;;;5030244;28;20206;-85
2022/01/19 10:56:25;;;;;;;12.90;9.93;;;;;;;;;;5040180;28;20296;-85
2022/01/19 10:58:59;;;;;;;13.90;10.47;;;;;;;;;;5059413;22;20251;-84
2022/01/19 11:01:36;;;;;;;12.67;10.30;;;;;;;;;;5057809;28;20204;-82
2022/01/19 11:04:27;;;;;;;13.27;10.50;;;;;;;;;;5061405;28;20205;-85
2022/01/19 11:06:56;;;;;;;12.83;9.97;;;;;;;;;;5055378;28;20243;-84
2022/01/19 11:09:27;;;;;;;11.23;9.67;;;;;;;;;;5062935;28;20271;-84
2022/01/19 11:11:55;;;;;;;13.17;10.50;;;;;;;;;;5052611;28;20232;-84
2022/01/19 11:14:24;;;;;;;14.20;10.37;;;;;;;;;;5055933;28;20205;-83
2022/01/19 11:16:52;;;;;;;13.67;11.20;;;;;;;;;;5046499;28;20202;-81
2022/01/19 11:19:20;;;;;;;15.00;10.90;;;;;;;;;;5045145;28;20226;-86
2022/01/19 11:22:05;;;;;;;14.97;10.87;;;;;;;;;;5045610;28;20216;-83
2022/01/19 11:24:37;;;;;;;12.23;10.10;;;;;;;;;;5058127;28;20233;-82
2022/01/19 11:27:05;;;;;;;12.30;10.63;;;;;;;;;;5049168;28;20198;-84
2022/01/19 11:29:32;;;;;;;18.20;11.17;;;;;;;;;;5049046;28;20230;-84
2022/01/19 11:32:00;;;;;;;13.60;11.00;;;;;;;;;;5045044;28;20222;-83
2022/01/19 11:34:46;;;;;;;12.77;10.97;;;;;;;;;;5044741;28;20202;-82
2022/01/19 11:37:15;;;;;;;13.70;10.00;;;;;;;;;;5056929;28;20215;-82
2022/01/19 11:40:02;;;;;;;14.33;10.17;;;;;;;;;;5056217;28;20241;-82
2022/01/19 11:42:30;;;;;;;14.77;10.10;;;;;;;;;;5056146;28;20262;-81
2022/01/19 11:44:57;;;;;;;12.50;10.23;;;;;;;;;;5057824;28;20221;-82
2022/01/19 11:47:31;;;;;;;15.00;10.20;;;;;;;;;;5041694;28;20263;-80
2022/01/19 11:50:00;;;;;;;11.90;10.50;;;;;;;;;;5057262;28;20240;-80
2022/01/19 11:52:53;;;;;;;14.43;9.80;;;;;;;;;;5048351;28;20210;-80
2022/01/19 11:55:21;;;;;;;11.83;9.70;;;;;;;;;;5038961;28;20213;-83
2022/01/19 11:58:11;;;;;;;13.23;9.97;;;;;;;;;;5040439;28;20210;-82
2022/01/19 12:00:39;;;;;;;11.90;9.07;;;;;;;;;;5046899;28;20233;-82
2022/01/19 12:03:24;;;;;;;13.20;9.57;;;;;;;;;;5057666;28;20216;-82
2022/01/19 12:05:53;;;;;;;12.13;9.30;;;;;;;;;;5057230;28;20209;-83
2022/01/19 12:08:23;;;;;;;11.37;10.00;;;;;;;;;;5060717;28;20232;-84
2022/01/19 12:10:54;;;;;;;12.00;9.63;;;;;;;;;;5041594;28;20224;-83
2022/01/19 12:13:58;;;;;;;12.57;9.87;;;;;;;;;;5041036;28;20300;-83
2022/01/19 12:19:26;;;;;;;10.53;9.43;;;;;;;;;;5021578;28;20312;-84
2022/01/19 12:21:56;;;;;;;13.37;9.83;;;;;;;;;;5043598;28;20209;-81
2022/01/19 12:24:27;;;;;;;13.10;9.93;;;;;;;;;;5050459;28;20267;-82
2022/01/19 12:26:56;;;;;;;12.20;10.03;;;;;;;;;;5059247;28;20213;-81
2022/01/19 12:29:42;;;;;;;11.73;9.90;;;;;;;;;;5056781;28;20225;-80
2022/01/19 12:32:21;;;;;;;10.73;9.57;;;;;;;;;;5060491;28;20208;-84
2022/01/19 12:34:49;;;;;;;9.83;8.77;;;;;;;;;;5046559;28;20221;-83
2022/01/19 12:37:38;;;;;;;13.63;9.73;;;;;;;;;;5047813;28;20214;-82
2022/01/19 12:40:08;;;;;;;11.57;8.60;;;;;;;;;;5047061;28;20228;-84
2022/01/19 12:42:43;;;;;;;9.43;7.87;;;;;;;;;;5046806;28;20209;-82
2022/01/19 12:45:16;;;;;;;9.73;8.37;;;;;;;;;;5055461;28;20205;-84
2022/01/19 12:47:45;;;;;;;11.30;8.60;;;;;;;;;;5053865;28;20229;-82
2022/01/19 12:50:27;;;;;;;13.07;9.00;;;;;;;;;;5052980;28;20225;-83
2022/01/19 12:52:55;;;;;;;11.20;8.43;;;;;;;;;;5036954;28;20202;-83
2022/01/19 12:55:28;;;;;;;11.07;8.27;;;;;;;;;;5047088;28;20201;-83
2022/01/19 12:57:57;;;;;;;9.90;8.60;;;;;;;;;;5046562;28;20267;-85
2022/01/19 13:00:31;;;;;;;12.00;8.30;;;;;;;;;;5058316;28;20260;-87
2022/01/19 13:03:12;;;;;;;10.57;8.57;;;;;;;;;;5047746;28;20222;-84
2022/01/19 13:05:48;;;;;;;10.87;8.23;;;;;;;;;;5051372;28;20231;-83
2022/01/19 13:08:24;;;;;;;10.43;8.30;;;;;;;;;;5057704;28;20224;-86
2022/01/19 13:11:02;;;;;;;10.13;8.37;;;;;;;;;;5038259;28;20198;-85
2022/01/19 13:13:31;;;;;;;9.60;7.70;;;;;;;;;;5038155;28;20215;-86
2022/01/19 13:15:59;;;;;;;8.60;7.23;;;;;;;;;;5045734;28;20224;-84
2022/01/19 13:18:34;;;;;;;10.23;8.03;;;;;;;;;;5038097;28;20243;-82
2022/01/19 13:21:04;;;;;;;11.73;8.50;;;;;;;;;;5037955;28;20259;-84
2022/01/19 13:23:39;;;;;;;12.20;8.13;;;;;;;;;;5037984;28;20233;-84
2022/01/19 13:26:10;;;;;;;7.50;6.63;;;;;;;;;;5053230;28;20278;-85
2022/01/19 13:28:37;;;;;;;8.47;5.87;;;;;;;;;;5048436;28;20365;-86
2022/01/19 13:31:12;;;;;;;7.83;5.80;;;;;;;;;;5058549;28;20190;-87
2022/01/19 13:33:40;;;;;;;7.03;6.20;;;;;;;;;;5054877;28;20194;-86
2022/01/19 13:36:17;;;;;;;9.93;5.93;;;;;;;;;;5047009;28;20207;-88
2022/01/19 13:38:52;;;;;;;8.00;5.80;;;;;;;;;;5061487;28;20209;-86
2022/01/19 13:41:27;;;;;;;8.73;6.73;;;;;;;;;;5062777;28;20276;-88
2022/01/19 13:43:55;;;;;;;6.67;5.97;;;;;;;;;;5073331;28;20614;-84
2022/01/19 13:46:24;;;;;;;7.33;6.23;;;;;;;;;;5054512;28;20248;-83
2022/01/19 13:48:56;;;;;;;9.80;5.93;;;;;;;;;;5049878;28;20232;-81
2022/01/19 13:51:32;;;;;;;6.43;5.73;;;;;;;;;;5052054;28;20236;-82
2022/01/19 13:54:02;;;;;;;12.83;7.93;;;;;;;;;;5055234;28;20201;-83
2022/01/19 13:56:32;;;;;;;7.93;4.97;;;;;;;;;;5045161;28;20226;-81
2022/01/19 13:59:01;;;;;;;6.20;4.90;;;;;;;;;;5043700;28;20234;-83
2022/01/19 14:01:39;;;;;;;7.20;5.13;;;;;;;;;;5053760;28;20193;-83
2022/01/19 14:04:07;;;;;;;7.83;5.50;;;;;;;;;;5054929;28;20205;-82
2022/01/19 14:06:36;;;;;;;7.47;4.70;;;;;;;;;;5056598;28;20209;-85
2022/01/19 14:09:07;;;;;;;11.27;5.40;;;;;;;;;;5044484;28;20291;-84
2022/01/19 14:11:37;;;;;;;7.67;4.80;;;;;;;;;;5045206;28;20194;-80
2022/01/19 14:14:05;;;;;;;7.13;5.47;;;;;;;;;;5040500;28;20210;-83
2022/01/19 14:16:39;;;;;;;7.77;5.43;;;;;;;;;;5045043;28;20252;-85
2022/01/19 14:19:14;;;;;;;8.23;5.57;;;;;;;;;;5045875;28;20217;-86
2022/01/19 14:21:54;;;;;;;8.13;5.30;;;;;;;;;;5040155;28;20209;-85
2022/01/19 14:24:22;;;;;;;5.77;4.77;;;;;;;;;;5040101;28;20205;-82
2022/01/19 14:26:54;;;;;;;11.63;5.00;;;;;;;;;;5043857;28;20206;-83
2022/01/19 14:29:21;;;;;;;6.97;5.60;;;;;;;;;;5047744;28;20234;-80
2022/01/19 14:31:50;;;;;;;10.77;6.83;;;;;;;;;;5042773;28;20209;-82
2022/01/19 14:34:17;;;;;;;11.10;6.40;;;;;;;;;;5048533;28;20235;-79
2022/01/19 14:36:47;;;;;;;15.00;7.47;;;;;;;;;;5043452;28;20213;-81
2022/01/19 14:39:17;;;;;;;7.93;4.80;;;;;;;;;;5044223;28;20218;-83
2022/01/19 14:41:44;;;;;;;7.57;5.23;;;;;;;;;;5048615;28;20260;-82
2022/01/19 14:44:29;;;;;;;7.63;4.97;;;;;;;;;;5042750;28;20202;-81
2022/01/19 14:47:05;;;;;;;5.97;5.03;;;;;;;;;;5046046;28;20204;-80
2022/01/19 14:49:35;;;;;;;6.90;5.07;;;;;;;;;;5041706;28;20221;-82
2022/01/19 14:52:07;;;;;;;6.80;5.50;;;;;;;;;;5045425;28;20197;-80
2022/01/19 14:54:35;;;;;;;8.03;5.80;;;;;;;;;;5044725;28;20264;-82
2022/01/19 14:57:03;;;;;;;7.13;5.17;;;;;;;;;;5051790;28;20251;-81
2022/01/19 14:59:44;;;;;;;7.27;5.37;;;;;;;;;;5049349;28;20229;-82
2022/01/19 15:02:14;;;;;;;8.90;5.63;;;;;;;;;;5054721;28;20224;-79
2022/01/19 15:04:44;;;;;;;8.57;5.70;;;;;;;;;;5047496;28;20217;-79
2022/01/19 15:07:19;;;;;;;8.50;5.63;;;;;;;;;;5046184;28;20229;-81
2022/01/19 15:09:47;;;;;;;9.40;6.00;;;;;;;;;;5041974;28;20260;-81
2022/01/19 15:12:18;;;;;;;11.33;6.00;;;;;;;;;;5052434;28;20202;-80
2022/01/19 15:14:51;;;;;;;7.80;5.93;;;;;;;;;;5048050;28;20198;-84
2022/01/19 15:17:26;;;;;;;8.17;6.03;;;;;;;;;;5054930;28;20213;-83
2022/01/19 15:19:56;;;;;;;7.43;6.23;;;;;;;;;;5056799;28;20221;-83
2022/01/19 15:22:26;;;;;;;7.07;6.00;;;;;;;;;;5048293;28;20242;-82
2022/01/19 15:24:54;;;;;;;8.43;6.30;;;;;;;;;;5046135;28;20197;-84
2022/01/19 15:27:21;;;;;;;11.87;6.43;;;;;;;;;;5053284;28;20729;-83
2022/01/19 15:29:55;;;;;;;9.37;6.23;;;;;;;;;;5046375;28;20307;-82
2022/01/19 15:32:27;;;;;;;7.70;6.37;;;;;;;;;;5040646;28;20263;-82
2022/01/19 15:34:58;;;;;;;8.10;6.13;;;;;;;;;;5047062;28;20201;-83
2022/01/19 15:37:25;;;;;;;8.70;5.83;;;;;;;;;;5044475;28;20205;-84
2022/01/19 15:39:56;;;;;;;9.73;6.40;;;;;;;;;;5047690;28;20217;-84
2022/01/19 15:42:26;;;;;;;7.53;6.23;;;;;;;;;;5044404;28;20292;-83
2022/01/19 15:45:05;;;;;;;10.43;6.17;;;;;;;;;;5054009;28;20275;-83
2022/01/19 15:47:32;;;;;;;8.20;6.30;;;;;;;;;;5047127;28;20205;-83
2022/01/19 15:50:00;;;;;;;9.67;7.00;;;;;;;;;;5039843;28;20250;-82
2022/01/19 15:52:27;;;;;;;9.67;6.30;;;;;;;;;;5045378;28;20206;-82
2022/01/19 15:54:57;;;;;;;10.70;6.30;;;;;;;;;;5043965;28;20205;-83
2022/01/19 15:57:27;;;;;;;8.73;6.00;;;;;;;;;;5044244;28;20219;-82
2022/01/19 15:59:55;;;;;;;8.23;5.70;;;;;;;;;;5048811;28;20229;-83
2022/01/19 16:02:24;;;;;;;12.30;6.20;;;;;;;;;;5043169;28;20205;-82
2022/01/19 16:04:52;;;;;;;7.40;6.13;;;;;;;;;;5045674;28;20201;-82
2022/01/19 16:07:22;;;;;;;10.17;6.67;;;;;;;;;;5049888;28;20218;-83
2022/01/19 16:09:54;;;;;;;9.43;5.87;;;;;;;;;;5042051;28;20226;-80
2022/01/19 16:12:22;;;;;;;10.03;6.57;;;;;;;;;;5046787;28;20209;-81
2022/01/19 16:14:54;;;;;;;7.10;6.07;;;;;;;;;;5051568;28;20209;-80
2022/01/19 16:17:22;;;;;;;10.17;5.87;;;;;;;;;;5040443;28;20213;-81
2022/01/19 16:19:50;;;;;;;8.80;6.70;;;;;;;;;;5040641;28;20218;-81
2022/01/19 16:30:49;;;;;;;13.50;6.37;;;;;;;;;;5034932;28;20232;-80
2022/01/19 16:33:19;;;;;;;8.20;6.00;;;;;;;;;;5045761;28;20292;-82
2022/01/19 16:35:52;;;;;;;8.83;5.97;;;;;;;;;;5053948;28;20205;-81
2022/01/19 16:40:55;;;;;;;7.40;5.83;;;;;;;;;;5086617;22;20221;-80
2022/01/19 16:43:23;;;;;;;7.83;6.03;;;;;;;;;;5060457;28;20220;-80
2022/01/19 16:46:00;;;;;;;6.60;5.37;;;;;;;;;;5069785;28;20205;-80
2022/01/19 16:48:31;;;;;;;8.40;6.53;;;;;;;;;;5046998;28;20299;-82
2022/01/19 16:51:00;;;;;;;7.37;6.00;;;;;;;;;;5051128;28;20217;-84
2022/01/19 16:53:34;;;;;;;8.17;6.20;;;;;;;;;;5050830;28;20316;-81
2022/01/19 16:56:08;;;;;;;8.20;6.10;;;;;;;;;;5055878;28;20725;-81
2022/01/19 17:09:30;;;;;;;7.70;6.43;;;;;;;;;;5036532;28;20955;-91
2022/01/19 17:12:05;;;;;;;8.37;5.77;;;;;;;;;;5030249;28;20253;-90
2022/01/19 17:14:39;;;;;;;8.37;5.90;;;;;;;;;;5035497;28;20206;-87
2022/01/19 17:17:10;;;;;;;8.47;6.27;;;;;;;;;;5034521;28;20201;-87
2022/01/19 17:19:40;;;;;;;8.07;6.33;;;;;;;;;;5037344;28;20696;-86
2022/01/19 17:22:07;;;;;;;10.10;6.97;;;;;;;;;;5036776;28;20292;-88
2022/01/19 17:24:40;;;;;;;11.00;6.97;;;;;;;;;;5037029;28;20258;-89
2022/01/19 17:27:16;;;;;;;9.30;6.50;;;;;;;;;;5036115;28;20217;-88
2022/01/19 17:29:45;;;;;;;8.53;6.07;;;;;;;;;;5037665;28;20268;-86
2022/01/19 17:32:12;;;;;;;8.17;5.60;;;;;;;;;;5037393;28;20201;-86
2022/01/19 17:34:39;;;;;;;7.90;6.13;;;;;;;;;;5037604;28;20227;-87
2022/01/19 17:37:09;;;;;;;7.80;6.20;;;;;;;;;;5036537;28;20205;-88
2022/01/19 17:39:41;;;;;;;6.33;4.80;;;;;;;;;;5035243;28;20272;-87
2022/01/19 17:42:10;;;;;;;7.30;5.20;;;;;;;;;;5033091;28;20252;-87
2022/01/19 17:44:39;;;;;;;6.67;4.50;;;;;;;;;;5035625;28;20202;-88
2022/01/19 17:47:17;;;;;;;7.57;5.17;;;;;;;;;;5036891;28;20213;-87
2022/01/19 17:52:48;;;;;;;6.20;4.67;;;;;;;;;;5083355;27;20565;-89
2022/01/19 17:55:16;;;;;;;5.93;4.70;;;;;;;;;;5073518;28;20347;-87
2022/01/19 17:57:43;;;;;;;8.03;5.60;;;;;;;;;;5077730;28;20200;-88
2022/01/19 18:00:16;;;;;;;7.10;5.47;;;;;;;;;;5083372;28;20218;-90
2022/01/19 18:02:47;;;;;;;6.10;4.53;;;;;;;;;;5075125;28;20660;-90
2022/01/19 18:05:24;;;;;;;5.07;3.90;;;;;;;;;;5083624;28;20200;-90
2022/01/19 18:07:53;;;;;;;6.47;4.47;;;;;;;;;;5082185;28;20232;-88
2022/01/19 18:10:22;;;;;;;5.10;4.07;;;;;;;;;;5083903;28;20319;-91
2022/01/19 18:12:53;;;;;;;6.33;4.43;;;;;;;;;;5079578;28;20204;-90
2022/01/19 18:15:21;;;;;;;8.10;4.77;;;;;;;;;;5084526;28;20208;-89
2022/01/19 18:17:53;;;;;;;5.33;4.83;;;;;;;;;;5082178;28;20204;-89
2022/01/19 18:20:34;;;;;;;5.47;4.80;;;;;;;;;;5086786;28;20226;-89
2022/01/19 18:23:03;;;;;;;5.03;4.13;;;;;;;;;;5080490;28;20208;-88
2022/01/19 18:25:30;;;;;;;5.93;5.23;;;;;;;;;;5074087;28;20255;-88
2022/01/19 18:27:58;;;;;;;7.27;5.23;;;;;;;;;;5082419;28;20208;-90
2022/01/19 18:30:26;;;;;;;6.57;5.27;;;;;;;;;;5076058;28;20224;-89
2022/01/19 18:32:58;;;;;;;6.50;5.10;;;;;;;;;;5088160;28;20283;-90